createdAt,value
2018-12-31T00:02:25.554Z,87.33
2018-12-31T00:04:56.004Z,87.37
2018-12-31T00:07:26.501Z,87.25
2018-12-31T00:09:57.047Z,87.27
2018-12-31T00:12:27.579Z,87.70
2018-12-31T00:14:57.944Z,87.56
2018-12-31T00:17:28.678Z,87.21
2018-12-31T00:19:59.009Z,87.32
2018-12-31T00:22:29.554Z,87.00
2018-12-31T00:24:59.924Z,87.03
2018-12-31T00:27:30.631Z,86.58
2018-12-31T00:30:01.367Z,86.58
2018-12-31T00:32:31.799Z,86.66
2018-12-31T00:35:03.325Z,86.57
2018-12-31T00:37:33.737Z,87.01
2018-12-31T00:40:04.499Z,86.76
2018-12-31T00:42:34.971Z,86.84
2018-12-31T00:45:05.759Z,85.90
2018-12-31T00:47:36.513Z,86.20
2018-12-31T00:50:06.856Z,85.58
2018-12-31T00:52:37.484Z,85.39
2018-12-31T00:55:08.023Z,85.40
2018-12-31T00:57:38.709Z,85.04
2018-12-31T01:00:09.510Z,85.35
2018-12-31T01:02:39.838Z,85.23
2018-12-31T01:05:10.486Z,85.30
2018-12-31T01:07:40.908Z,85.00
2018-12-31T01:10:11.525Z,85.24
2018-12-31T01:12:42.157Z,85.47
2018-12-31T01:15:12.884Z,85.51
2018-12-31T01:17:43.530Z,85.28
2018-12-31T01:20:13.955Z,85.34
2018-12-31T01:22:44.567Z,85.09
2018-12-31T01:25:15.054Z,85.47
2018-12-31T01:27:45.734Z,84.74
2018-12-31T01:30:16.495Z,85.10
2018-12-31T01:32:46.893Z,84.87
2018-12-31T01:35:17.549Z,84.88
2018-12-31T01:37:48.114Z,84.49
2018-12-31T01:40:18.568Z,84.24
2018-12-31T01:42:48.955Z,83.92
2018-12-31T01:45:19.698Z,84.61
2018-12-31T01:47:50.074Z,84.61
2018-12-31T01:50:20.738Z,84.47
2018-12-31T01:52:51.463Z,84.77
2018-12-31T01:55:21.858Z,84.61
2018-12-31T01:57:52.510Z,84.13
2018-12-31T02:00:22.918Z,83.93
2018-12-31T02:02:53.524Z,84.26
2018-12-31T02:05:23.898Z,84.26
2018-12-31T02:07:54.626Z,84.49
2018-12-31T02:10:24.945Z,84.46
2018-12-31T02:12:55.686Z,84.12
2018-12-31T02:15:27.443Z,84.00
2018-12-31T02:17:57.805Z,84.16
2018-12-31T02:20:28.522Z,84.11
2018-12-31T02:22:58.898Z,84.11
2018-12-31T02:25:29.722Z,84.15
2018-12-31T02:28:00.346Z,84.38
2018-12-31T02:30:30.725Z,84.52
2018-12-31T02:33:01.436Z,84.62
2018-12-31T02:35:31.893Z,84.40
2018-12-31T02:38:02.659Z,84.35
2018-12-31T02:40:33.141Z,84.35
2018-12-31T02:43:03.800Z,84.61
2018-12-31T02:45:34.558Z,84.34
2018-12-31T02:48:04.925Z,84.41
2018-12-31T02:50:35.679Z,84.48
2018-12-31T02:53:06.417Z,84.61
2018-12-31T02:55:36.772Z,84.70
2018-12-31T02:58:07.524Z,84.70
2018-12-31T03:00:37.919Z,84.70
2018-12-31T03:03:08.773Z,84.76
2018-12-31T03:05:39.422Z,84.94
2018-12-31T03:08:09.765Z,84.97
2018-12-31T03:10:40.485Z,85.20
2018-12-31T03:13:11.834Z,85.08
2018-12-31T03:15:42.598Z,85.17
2018-12-31T03:18:13.013Z,85.40
2018-12-31T03:20:43.715Z,85.12
2018-12-31T03:23:14.415Z,85.29
2018-12-31T03:25:44.775Z,85.39
2018-12-31T03:28:15.591Z,85.13
2018-12-31T03:30:46.254Z,85.17
2018-12-31T03:33:16.635Z,85.12
2018-12-31T03:35:47.344Z,85.35
2018-12-31T03:38:17.752Z,85.62
2018-12-31T03:40:49.252Z,85.53
2018-12-31T03:43:19.713Z,85.48
2018-12-31T03:45:50.387Z,85.31
2018-12-31T03:48:20.811Z,85.51
2018-12-31T03:50:51.469Z,85.63
2018-12-31T03:53:21.956Z,85.78
2018-12-31T03:55:52.501Z,86.04
2018-12-31T03:58:22.878Z,86.29
2018-12-31T04:00:53.797Z,86.76
2018-12-31T04:03:24.433Z,87.33
2018-12-31T04:05:54.934Z,87.77
2018-12-31T04:08:26.828Z,88.12
2018-12-31T04:10:57.507Z,88.19
2018-12-31T04:13:27.900Z,88.40
2018-12-31T04:15:58.533Z,88.51
2018-12-31T04:18:29.169Z,88.64
2018-12-31T04:20:59.874Z,88.57
2018-12-31T04:23:30.480Z,88.67
2018-12-31T04:26:00.883Z,88.65
2018-12-31T04:28:31.520Z,88.70
2018-12-31T04:31:02.171Z,88.71
2018-12-31T04:33:32.542Z,88.45
2018-12-31T04:36:02.925Z,88.65
2018-12-31T04:38:33.631Z,88.49
2018-12-31T04:41:04.033Z,88.63
2018-12-31T04:43:34.825Z,88.66
2018-12-31T04:46:05.573Z,88.56
2018-12-31T04:48:35.923Z,88.42
2018-12-31T04:51:06.584Z,88.30
2018-12-31T04:53:36.994Z,88.40
2018-12-31T04:56:07.667Z,88.50
2018-12-31T04:58:38.091Z,88.47
2018-12-31T05:01:08.796Z,88.44
2018-12-31T05:03:39.450Z,88.38
2018-12-31T05:06:09.885Z,88.45
2018-12-31T05:08:40.451Z,88.42
2018-12-31T05:11:10.813Z,88.64
2018-12-31T05:13:41.572Z,88.79
2018-12-31T05:16:11.943Z,88.81
2018-12-31T05:18:42.846Z,88.87
2018-12-31T05:21:13.542Z,88.92
2018-12-31T05:23:43.979Z,88.99
2018-12-31T05:26:14.568Z,89.31
2018-12-31T05:28:44.898Z,89.45
2018-12-31T05:31:15.618Z,89.68
2018-12-31T05:33:45.963Z,90.41
2018-12-31T05:36:16.678Z,90.56
2018-12-31T05:38:47.397Z,90.85
2018-12-31T05:41:17.955Z,90.82
2018-12-31T05:43:48.935Z,90.91
2018-12-31T05:46:19.594Z,91.19
2018-12-31T05:48:49.975Z,91.50
2018-12-31T05:51:20.580Z,91.67
2018-12-31T05:53:50.980Z,91.88
2018-12-31T05:56:21.594Z,91.82
2018-12-31T05:58:51.938Z,91.68
2018-12-31T06:01:22.564Z,91.71
2018-12-31T06:03:52.964Z,91.96
2018-12-31T06:06:23.562Z,92.04
2018-12-31T06:08:54.440Z,92.27
2018-12-31T06:11:24.858Z,92.58
2018-12-31T06:13:55.523Z,92.67
2018-12-31T06:16:25.964Z,92.73
2018-12-31T06:18:57.889Z,92.84
2018-12-31T06:21:28.621Z,92.88
2018-12-31T06:23:58.944Z,92.87
2018-12-31T06:26:29.647Z,92.87
2018-12-31T06:29:00.352Z,92.91
2018-12-31T06:31:30.831Z,92.70
2018-12-31T06:34:01.568Z,92.96
2018-12-31T06:36:31.954Z,92.89
2018-12-31T06:39:02.544Z,92.97
2018-12-31T06:41:33.037Z,93.26
2018-12-31T06:44:03.619Z,93.41
2018-12-31T06:46:34.111Z,93.52
2018-12-31T06:49:04.772Z,93.48
2018-12-31T06:51:35.482Z,93.80
2018-12-31T06:54:05.900Z,93.77
2018-12-31T06:56:36.523Z,93.97
2018-12-31T06:59:07.010Z,94.00
2018-12-31T07:01:37.483Z,93.99
2018-12-31T07:04:07.856Z,94.08
2018-12-31T07:06:38.508Z,94.02
2018-12-31T07:09:09.238Z,93.95
2018-12-31T07:11:39.696Z,93.92
2018-12-31T07:14:10.392Z,93.70
2018-12-31T07:16:40.770Z,93.69
2018-12-31T07:19:11.474Z,93.62
2018-12-31T07:21:41.855Z,93.56
2018-12-31T07:24:12.758Z,93.59
2018-12-31T07:26:43.434Z,93.75
2018-12-31T07:29:13.802Z,93.75
2018-12-31T07:31:45.925Z,93.59
2018-12-31T07:34:16.499Z,93.45
2018-12-31T07:36:46.935Z,93.68
2018-12-31T07:39:17.540Z,93.61
2018-12-31T07:41:47.867Z,93.36
2018-12-31T07:44:18.647Z,93.33
2018-12-31T07:46:49.007Z,93.25
2018-12-31T07:49:19.826Z,93.21
2018-12-31T07:51:51.890Z,93.04
2018-12-31T07:54:22.499Z,93.13
2018-12-31T07:56:52.926Z,93.25
2018-12-31T07:59:23.468Z,93.28
2018-12-31T08:01:54.159Z,93.42
2018-12-31T08:04:24.871Z,93.43
2018-12-31T08:06:55.562Z,93.28
2018-12-31T08:09:26.043Z,93.30
2018-12-31T08:11:57.828Z,93.03
2018-12-31T08:14:28.516Z,92.96
2018-12-31T08:16:58.938Z,93.09
2018-12-31T08:19:29.485Z,93.33
2018-12-31T08:21:59.844Z,93.23
2018-12-31T08:24:30.596Z,93.19
2018-12-31T08:27:00.982Z,93.17
2018-12-31T08:29:32.084Z,92.88
2018-12-31T08:32:02.619Z,92.88
2018-12-31T08:34:32.955Z,92.91
2018-12-31T08:37:03.522Z,92.69
2018-12-31T08:39:33.901Z,92.60
2018-12-31T08:42:04.936Z,92.63
2018-12-31T08:44:35.618Z,92.62
2018-12-31T08:47:05.990Z,92.66
2018-12-31T08:49:36.689Z,92.72
2018-12-31T08:52:08.755Z,92.85
2018-12-31T08:54:39.528Z,92.90
2018-12-31T08:57:09.887Z,93.16
2018-12-31T08:59:40.583Z,93.32
2018-12-31T09:02:11.036Z,93.33
2018-12-31T09:04:41.675Z,93.31
2018-12-31T09:07:12.505Z,93.41
2018-12-31T09:09:42.831Z,93.51
2018-12-31T09:12:13.445Z,93.12
2018-12-31T09:14:43.841Z,93.12
2018-12-31T09:17:14.531Z,93.23
2018-12-31T09:19:45.047Z,93.22
2018-12-31T09:22:15.470Z,92.85
2018-12-31T09:24:45.937Z,92.78
2018-12-31T09:27:17.032Z,92.85
2018-12-31T09:29:47.477Z,92.82
2018-12-31T09:32:17.990Z,92.76
2018-12-31T09:34:48.527Z,92.84
2018-12-31T09:37:18.882Z,92.23
2018-12-31T09:39:49.647Z,92.11
2018-12-31T09:42:19.983Z,91.93
2018-12-31T09:44:51.883Z,91.85
2018-12-31T09:47:22.514Z,91.75
2018-12-31T09:49:56.025Z,91.55
2018-12-31T09:52:27.103Z,91.26
2018-12-31T09:54:57.590Z,91.41
2018-12-31T09:57:30.304Z,91.48
2018-12-31T10:00:00.822Z,91.04
2018-12-31T10:02:31.451Z,91.00
2018-12-31T10:05:01.901Z,90.51
2018-12-31T10:07:34.581Z,90.57
2018-12-31T10:10:05.471Z,90.44
2018-12-31T10:12:35.886Z,90.41
2018-12-31T10:15:07.552Z,89.73
2018-12-31T10:17:38.187Z,90.03
2018-12-31T10:20:09.273Z,89.43
2018-12-31T10:22:39.957Z,89.53
2018-12-31T10:25:10.625Z,89.72
2018-12-31T10:27:41.069Z,90.07
2018-12-31T10:30:11.545Z,89.58
2018-12-31T10:32:41.897Z,89.40
2018-12-31T10:35:12.701Z,89.22
2018-12-31T10:37:43.397Z,88.87
2018-12-31T10:40:13.902Z,88.96
2018-12-31T10:42:44.613Z,88.87
2018-12-31T10:45:15.016Z,89.13
2018-12-31T10:47:46.171Z,89.19
2018-12-31T10:50:20.177Z,89.42
2018-12-31T10:52:50.584Z,89.36
2018-12-31T10:55:21.141Z,89.29
2018-12-31T10:57:51.533Z,89.85
2018-12-31T11:00:22.645Z,90.08
2018-12-31T11:02:53.065Z,89.88
2018-12-31T11:05:23.752Z,89.76
2018-12-31T11:07:54.572Z,89.67
2018-12-31T11:10:24.952Z,89.96
2018-12-31T11:12:55.629Z,89.72
2018-12-31T11:15:26.069Z,89.90
2018-12-31T11:17:56.816Z,89.63
2018-12-31T11:20:27.560Z,89.00
2018-12-31T11:22:58.003Z,88.99
2018-12-31T11:25:28.750Z,88.74
2018-12-31T11:28:01.019Z,88.20
2018-12-31T11:30:33.137Z,88.23
2018-12-31T11:33:03.643Z,88.42
2018-12-31T11:35:34.067Z,88.36
2018-12-31T11:38:04.576Z,88.48
2018-12-31T11:40:35.147Z,88.28
2018-12-31T11:43:05.566Z,88.34
2018-12-31T11:45:36.010Z,87.97
2018-12-31T11:48:06.968Z,87.68
2018-12-31T11:50:38.670Z,87.12
2018-12-31T11:53:09.308Z,86.94
2018-12-31T11:55:39.741Z,86.80
2018-12-31T11:58:11.369Z,86.60
2018-12-31T12:00:41.952Z,88.06
2018-12-31T12:03:12.646Z,86.70
2018-12-31T12:05:43.533Z,86.20
2018-12-31T12:08:14.883Z,86.03
2018-12-31T12:10:45.545Z,85.93
2018-12-31T12:13:15.977Z,86.33
2018-12-31T12:15:46.929Z,86.46
2018-12-31T12:18:17.744Z,86.50
2018-12-31T12:20:48.359Z,86.70
2018-12-31T12:23:18.880Z,86.72
2018-12-31T12:25:49.613Z,86.56
2018-12-31T12:28:20.923Z,86.56
2018-12-31T12:30:51.588Z,86.33
2018-12-31T12:33:21.909Z,86.28
2018-12-31T12:35:52.572Z,86.25
2018-12-31T12:38:23.437Z,85.93
2018-12-31T12:40:53.870Z,85.60
2018-12-31T12:43:24.591Z,85.43
2018-12-31T12:45:56.958Z,84.90
2018-12-31T12:48:27.921Z,84.77
2018-12-31T12:50:58.556Z,84.64
2018-12-31T12:53:28.934Z,84.84
2018-12-31T12:55:59.715Z,84.68
2018-12-31T12:58:30.071Z,84.67
2018-12-31T13:01:00.739Z,84.21
2018-12-31T13:03:31.453Z,84.80
2018-12-31T13:06:01.796Z,85.00
2018-12-31T13:08:32.812Z,85.15
2018-12-31T13:11:03.561Z,85.20
2018-12-31T13:13:33.933Z,85.25
2018-12-31T13:16:04.629Z,85.13
2018-12-31T13:18:34.979Z,84.88
2018-12-31T13:21:05.984Z,84.89
2018-12-31T13:23:36.646Z,84.58
2018-12-31T13:26:06.986Z,84.17
2018-12-31T13:28:37.753Z,84.34
2018-12-31T13:31:08.445Z,84.69
2018-12-31T13:33:39.449Z,84.75
2018-12-31T13:36:09.822Z,84.77
2018-12-31T13:38:40.445Z,84.76
2018-12-31T13:41:10.906Z,84.73
2018-12-31T13:43:41.581Z,84.87
2018-12-31T13:46:12.213Z,84.68
2018-12-31T13:48:42.628Z,85.04
2018-12-31T13:51:13.318Z,85.14
2018-12-31T13:53:43.820Z,85.03
2018-12-31T13:56:14.555Z,84.86
2018-12-31T13:58:45.056Z,84.56
2018-12-31T14:01:15.593Z,84.57
2018-12-31T14:03:46.938Z,84.87
2018-12-31T14:06:17.721Z,84.61
2018-12-31T14:08:48.379Z,84.70
2018-12-31T14:11:18.878Z,84.48
2018-12-31T14:13:52.104Z,84.64
2018-12-31T14:16:22.780Z,84.44
2018-12-31T14:18:53.557Z,84.92
2018-12-31T14:21:23.931Z,84.55
2018-12-31T14:23:54.388Z,84.61
2018-12-31T14:26:26.303Z,84.51
2018-12-31T14:28:57.611Z,84.63
2018-12-31T14:31:28.035Z,84.63
2018-12-31T14:33:59.790Z,84.61
2018-12-31T14:36:30.411Z,84.50
2018-12-31T14:39:02.206Z,83.80
2018-12-31T14:41:32.785Z,84.00
2018-12-31T14:44:03.550Z,84.26
2018-12-31T14:46:35.116Z,84.23
2018-12-31T14:49:08.181Z,84.25
2018-12-31T14:51:41.466Z,84.02
2018-12-31T14:54:11.910Z,84.16
2018-12-31T14:56:43.673Z,84.21
2018-12-31T14:59:14.580Z,84.20
2018-12-31T15:02:05.023Z,84.22
2018-12-31T15:04:36.147Z,84.23
2018-12-31T15:07:08.909Z,84.21
2018-12-31T15:09:41.129Z,84.30
2018-12-31T15:12:12.910Z,83.96
2018-12-31T15:14:44.799Z,84.04
2018-12-31T15:17:15.950Z,84.07
2018-12-31T15:19:49.584Z,83.94
2018-12-31T15:22:19.953Z,83.59
2018-12-31T15:24:50.523Z,83.23
2018-12-31T15:27:21.964Z,83.61
2018-12-31T15:29:53.817Z,83.42
2018-12-31T15:32:25.603Z,83.66
2018-12-31T15:34:58.627Z,83.63
2018-12-31T15:37:29.035Z,83.62
2018-12-31T15:40:03.910Z,83.28
2018-12-31T15:42:34.696Z,83.46
2018-12-31T15:45:05.485Z,83.60
2018-12-31T15:47:35.891Z,83.56
2018-12-31T15:50:07.345Z,83.66
2018-12-31T15:52:37.973Z,83.70
2018-12-31T15:55:08.699Z,83.82
2018-12-31T15:57:39.381Z,82.96
2018-12-31T16:00:11.762Z,83.30
2018-12-31T16:02:42.506Z,83.62
2018-12-31T16:05:13.457Z,83.84
2018-12-31T16:07:45.909Z,83.79
2018-12-31T16:10:16.499Z,84.54
2018-12-31T16:12:47.529Z,85.05
2018-12-31T16:15:18.030Z,82.97
2018-12-31T16:17:48.530Z,82.02
2018-12-31T16:20:18.995Z,81.59
2018-12-31T16:22:49.639Z,82.11
2018-12-31T16:25:20.026Z,82.37
2018-12-31T16:27:50.783Z,81.14
2018-12-31T16:30:21.805Z,81.54
2018-12-31T16:32:52.548Z,80.89
2018-12-31T16:35:23.441Z,81.63
2018-12-31T16:37:53.824Z,81.83
2018-12-31T16:40:24.691Z,81.88
2018-12-31T16:43:01.151Z,81.28
2018-12-31T16:45:31.815Z,81.59
2018-12-31T16:48:02.523Z,81.58
2018-12-31T16:50:32.947Z,81.67
2018-12-31T16:53:04.094Z,81.79
2018-12-31T16:55:34.761Z,81.54
2018-12-31T16:58:05.419Z,81.30
2018-12-31T17:00:35.880Z,81.70
2018-12-31T17:03:06.514Z,81.75
2018-12-31T17:05:37.055Z,81.40
2018-12-31T17:08:07.766Z,81.68
2018-12-31T17:10:38.840Z,81.59
2018-12-31T17:13:09.571Z,81.71
2018-12-31T17:15:39.974Z,81.77
2018-12-31T17:18:10.681Z,81.79
2018-12-31T17:20:41.350Z,81.84
2018-12-31T17:23:11.782Z,81.84
2018-12-31T17:25:42.564Z,81.85
2018-12-31T17:28:12.991Z,81.71
2018-12-31T17:30:43.633Z,81.45
2018-12-31T17:33:14.051Z,81.59
2018-12-31T17:35:44.507Z,81.56
2018-12-31T17:38:14.944Z,81.71
2018-12-31T17:40:45.460Z,81.60
2018-12-31T17:43:16.140Z,81.30
2018-12-31T17:45:47.239Z,81.14
2018-12-31T17:48:17.837Z,81.30
2018-12-31T17:50:48.612Z,81.36
2018-12-31T17:53:19.051Z,81.47
2018-12-31T17:55:49.795Z,81.66
2018-12-31T17:58:20.608Z,81.91
2018-12-31T18:00:51.394Z,81.91
2018-12-31T18:03:21.997Z,81.52
2018-12-31T18:05:52.826Z,81.55
2018-12-31T18:08:23.697Z,81.76
2018-12-31T18:10:54.135Z,81.73
2018-12-31T18:13:24.564Z,81.76
2018-12-31T18:15:55.069Z,82.00
2018-12-31T18:18:25.811Z,81.81
2018-12-31T18:20:56.749Z,81.89
2018-12-31T18:23:27.802Z,82.50
2018-12-31T18:25:59.294Z,82.30
2018-12-31T18:28:29.872Z,82.07
2018-12-31T18:31:01.154Z,81.98
2018-12-31T18:33:33.345Z,82.11
2018-12-31T18:36:03.856Z,82.37
2018-12-31T18:38:34.589Z,82.37
2018-12-31T18:41:05.237Z,82.08
2018-12-31T18:43:35.765Z,82.12
2018-12-31T18:46:07.447Z,82.13
2018-12-31T18:48:38.067Z,81.88
2018-12-31T18:51:10.304Z,81.95
2018-12-31T18:53:40.997Z,82.07
2018-12-31T18:56:13.069Z,81.99
2018-12-31T18:58:43.952Z,82.07
2018-12-31T19:01:14.885Z,82.22
2018-12-31T19:03:45.670Z,82.46
2018-12-31T19:06:16.433Z,82.63
2018-12-31T19:08:46.825Z,82.80
2018-12-31T19:11:17.709Z,83.13
2018-12-31T19:13:48.631Z,83.33
2018-12-31T19:16:19.331Z,83.40
2018-12-31T19:18:50.035Z,83.46
2018-12-31T19:21:20.818Z,83.52
2018-12-31T19:23:52.113Z,83.64
2018-12-31T19:26:22.887Z,83.65
2018-12-31T19:28:53.612Z,83.88
2018-12-31T19:31:24.113Z,83.94
2018-12-31T19:33:55.029Z,84.05
2018-12-31T19:36:26.139Z,84.35
2018-12-31T19:39:02.466Z,84.89
2018-12-31T19:41:34.823Z,84.77
2018-12-31T19:44:06.366Z,84.92
2018-12-31T19:46:37.246Z,84.83
2018-12-31T19:49:07.916Z,84.40
2018-12-31T19:51:38.740Z,84.94
2018-12-31T19:54:09.595Z,85.07
2018-12-31T19:56:40.454Z,84.69
2018-12-31T19:59:11.145Z,84.50
2018-12-31T20:01:42.992Z,85.15
2018-12-31T20:04:13.736Z,85.53
2018-12-31T20:06:46.217Z,86.00
2018-12-31T20:09:17.036Z,85.79
2018-12-31T20:11:47.840Z,85.60
2018-12-31T20:14:18.536Z,86.15
2018-12-31T20:16:51.704Z,86.15
2018-12-31T20:19:23.939Z,86.31
2018-12-31T20:21:54.791Z,86.27
2018-12-31T20:24:25.643Z,86.12
2018-12-31T20:26:56.125Z,86.41
2018-12-31T20:29:26.884Z,86.45
2018-12-31T20:31:57.729Z,86.47
2018-12-31T20:34:32.128Z,86.53
2018-12-31T20:37:02.917Z,86.79
2018-12-31T20:39:33.751Z,86.81
2018-12-31T20:42:05.695Z,86.86
2018-12-31T20:44:36.097Z,86.97
2018-12-31T20:47:08.038Z,86.84
2018-12-31T20:49:38.787Z,86.76
2018-12-31T20:52:09.525Z,86.95
2018-12-31T20:54:40.550Z,86.49
2018-12-31T20:57:11.129Z,86.78
2018-12-31T20:59:43.197Z,86.90
2018-12-31T21:02:13.858Z,87.16
2018-12-31T21:04:45.765Z,87.14
2018-12-31T21:07:16.599Z,86.95
2018-12-31T21:09:48.162Z,87.51
2018-12-31T21:12:19.246Z,87.17
2018-12-31T21:14:49.757Z,86.74
2018-12-31T21:17:20.862Z,86.48
2018-12-31T21:19:51.715Z,86.31
2018-12-31T21:22:22.404Z,86.52
2018-12-31T21:24:53.000Z,86.95
2018-12-31T21:27:23.780Z,87.51
2018-12-31T21:29:54.288Z,87.52
2018-12-31T21:32:24.901Z,87.76
2018-12-31T21:34:55.692Z,87.27
2018-12-31T21:37:26.244Z,87.27
2018-12-31T21:39:57.137Z,87.49
2018-12-31T21:42:29.574Z,86.80
2018-12-31T21:45:00.178Z,86.77
2018-12-31T21:47:30.958Z,86.95
2018-12-31T21:50:01.666Z,87.19
2018-12-31T21:52:32.171Z,87.33
2018-12-31T21:55:02.726Z,87.18
2018-12-31T21:57:33.579Z,87.58
2018-12-31T22:00:03.975Z,87.56
2018-12-31T22:02:36.089Z,87.91
2018-12-31T22:05:07.099Z,88.01
2018-12-31T22:07:38.012Z,87.77
2018-12-31T22:10:08.642Z,87.73
2018-12-31T22:12:39.032Z,87.55
2018-12-31T22:15:10.863Z,87.42
2018-12-31T22:17:41.709Z,87.88
2018-12-31T22:20:12.692Z,87.66
2018-12-31T22:22:43.125Z,87.08
2018-12-31T22:25:13.977Z,87.56
2018-12-31T22:27:44.981Z,87.43
2018-12-31T22:30:15.772Z,87.34
2018-12-31T22:32:46.502Z,87.44
2018-12-31T22:35:16.990Z,87.83
2018-12-31T22:37:48.102Z,88.62
2018-12-31T22:40:18.797Z,88.49
2018-12-31T22:42:49.683Z,88.36
2018-12-31T22:45:20.097Z,88.60
2018-12-31T22:47:51.967Z,88.44
2018-12-31T22:50:22.621Z,87.93
2018-12-31T22:52:53.027Z,87.90
2018-12-31T22:55:23.632Z,88.72
2018-12-31T22:57:54.103Z,88.85
2018-12-31T23:00:30.290Z,88.49
2018-12-31T23:03:01.040Z,88.99
2018-12-31T23:05:35.939Z,88.70
2018-12-31T23:08:07.166Z,89.11
2018-12-31T23:10:40.655Z,88.77
2018-12-31T23:13:11.160Z,88.64
2018-12-31T23:15:41.654Z,88.58
2018-12-31T23:18:13.361Z,89.41
2018-12-31T23:20:44.961Z,88.85
2018-12-31T23:23:15.995Z,88.54
2018-12-31T23:25:47.327Z,88.56
2018-12-31T23:28:17.848Z,88.75
2018-12-31T23:30:48.581Z,88.46
2018-12-31T23:33:19.214Z,88.79
2018-12-31T23:35:51.535Z,88.83
2018-12-31T23:38:22.317Z,88.92
2018-12-31T23:40:52.902Z,88.77
2018-12-31T23:43:27.318Z,88.65
2018-12-31T23:45:57.883Z,89.58
2018-12-31T23:48:28.630Z,89.27
2018-12-31T23:50:59.313Z,88.86
2018-12-31T23:53:29.880Z,88.99
2018-12-31T23:56:00.489Z,88.75
2018-12-31T23:58:31.469Z,88.66
